sensor_id;sensor_type;location;lat;lon;timestamp;temperature;humidity
26707;DHT22;14319;49.422;10.934;2024-02-28T00:01:11;4.60;96.40
26707;DHT22;14319;49.422;10.934;2024-02-28T00:03:12;4.70;96.10
26707;DHT22;14319;49.422;10.934;2024-02-28T00:05:13;4.60;96.80
26707;DHT22;14319;49.422;10.934;2024-02-28T00:07:13;4.60;97.80
26707;DHT22;14319;49.422;10.934;2024-02-28T00:09:14;4.60;96.10
26707;DHT22;14319;49.422;10.934;2024-02-28T00:11:15;4.60;96.70
26707;DHT22;14319;49.422;10.934;2024-02-28T00:13:15;4.60;96.70
26707;DHT22;14319;49.422;10.934;2024-02-28T00:15:16;4.60;96.30
26707;DHT22;14319;49.422;10.934;2024-02-28T00:17:17;4.50;96.90
26707;DHT22;14319;49.422;10.934;2024-02-28T00:19:17;4.50;96.50
26707;DHT22;14319;49.422;10.934;2024-02-28T00:21:20;4.50;96.50
26707;DHT22;14319;49.422;10.934;2024-02-28T00:23:21;4.50;96.60
26707;DHT22;14319;49.422;10.934;2024-02-28T00:25:21;4.50;97.20
26707;DHT22;14319;49.422;10.934;2024-02-28T00:27:22;4.60;96.60
26707;DHT22;14319;49.422;10.934;2024-02-28T00:29:23;4.50;96.90
26707;DHT22;14319;49.422;10.934;2024-02-28T00:31:23;4.60;95.90
26707;DHT22;14319;49.422;10.934;2024-02-28T00:33:24;4.50;96.30
26707;DHT22;14319;49.422;10.934;2024-02-28T00:35:24;4.60;96.40
26707;DHT22;14319;49.422;10.934;2024-02-28T00:37:25;4.60;95.20
26707;DHT22;14319;49.422;10.934;2024-02-28T00:39:26;4.60;96.30
26707;DHT22;14319;49.422;10.934;2024-02-28T00:41:26;4.60;95.90
26707;DHT22;14319;49.422;10.934;2024-02-28T00:43:27;4.70;95.70
26707;DHT22;14319;49.422;10.934;2024-02-28T00:45:27;4.60;95.30
26707;DHT22;14319;49.422;10.934;2024-02-28T00:47:28;4.70;95.00
26707;DHT22;14319;49.422;10.934;2024-02-28T00:49:29;4.90;94.40
26707;DHT22;14319;49.422;10.934;2024-02-28T00:51:29;4.70;94.30
26707;DHT22;14319;49.422;10.934;2024-02-28T00:53:30;4.70;94.80
26707;DHT22;14319;49.422;10.934;2024-02-28T00:55:30;4.70;95.10
26707;DHT22;14319;49.422;10.934;2024-02-28T00:57:31;4.60;94.80
26707;DHT22;14319;49.422;10.934;2024-02-28T00:59:31;4.60;94.50
26707;DHT22;14319;49.422;10.934;2024-02-28T01:01:32;4.50;95.20
26707;DHT22;14319;49.422;10.934;2024-02-28T01:03:33;4.60;94.60
26707;DHT22;14319;49.422;10.934;2024-02-28T01:05:33;4.50;95.00
26707;DHT22;14319;49.422;10.934;2024-02-28T01:07:34;4.50;95.20
26707;DHT22;14319;49.422;10.934;2024-02-28T01:09:34;4.60;94.60
26707;DHT22;14319;49.422;10.934;2024-02-28T01:11:35;4.60;95.10
26707;DHT22;14319;49.422;10.934;2024-02-28T01:13:36;4.60;94.80
26707;DHT22;14319;49.422;10.934;2024-02-28T01:15:36;4.60;94.80
26707;DHT22;14319;49.422;10.934;2024-02-28T01:17:37;4.80;94.80
26707;DHT22;14319;49.422;10.934;2024-02-28T01:19:37;4.90;92.90
26707;DHT22;14319;49.422;10.934;2024-02-28T01:21:38;5.10;92.80
26707;DHT22;14319;49.422;10.934;2024-02-28T01:23:39;5.10;91.70
26707;DHT22;14319;49.422;10.934;2024-02-28T01:25:40;5.10;92.40
26707;DHT22;14319;49.422;10.934;2024-02-28T01:27:41;4.70;93.20
26707;DHT22;14319;49.422;10.934;2024-02-28T01:29:43;4.60;94.40
26707;DHT22;14319;49.422;10.934;2024-02-28T01:31:43;4.70;94.40
26707;DHT22;14319;49.422;10.934;2024-02-28T01:33:45;4.60;94.70
26707;DHT22;14319;49.422;10.934;2024-02-28T01:35:45;4.60;94.80
26707;DHT22;14319;49.422;10.934;2024-02-28T01:37:46;4.60;94.80
26707;DHT22;14319;49.422;10.934;2024-02-28T01:39:46;4.90;93.30
26707;DHT22;14319;49.422;10.934;2024-02-28T01:41:52;5.20;91.90
26707;DHT22;14319;49.422;10.934;2024-02-28T01:43:53;4.70;93.00
26707;DHT22;14319;49.422;10.934;2024-02-28T01:45:54;4.60;94.10
26707;DHT22;14319;49.422;10.934;2024-02-28T01:47:54;4.40;95.70
26707;DHT22;14319;49.422;10.934;2024-02-28T01:49:55;4.40;95.50
26707;DHT22;14319;49.422;10.934;2024-02-28T01:51:55;4.50;95.40
26707;DHT22;14319;49.422;10.934;2024-02-28T01:53:58;4.50;94.80
26707;DHT22;14319;49.422;10.934;2024-02-28T01:55:59;4.50;94.50
26707;DHT22;14319;49.422;10.934;2024-02-28T01:58:00;4.80;94.10
26707;DHT22;14319;49.422;10.934;2024-02-28T02:00:01;4.80;94.20
26707;DHT22;14319;49.422;10.934;2024-02-28T02:02:01;4.90;93.90
26707;DHT22;14319;49.422;10.934;2024-02-28T02:04:06;4.80;93.20
26707;DHT22;14319;49.422;10.934;2024-02-28T02:06:06;4.70;94.40
26707;DHT22;14319;49.422;10.934;2024-02-28T02:08:07;4.50;94.60
26707;DHT22;14319;49.422;10.934;2024-02-28T02:10:08;4.50;94.50
26707;DHT22;14319;49.422;10.934;2024-02-28T02:12:12;4.50;95.10
26707;DHT22;14319;49.422;10.934;2024-02-28T02:14:13;4.50;94.60
26707;DHT22;14319;49.422;10.934;2024-02-28T02:16:14;4.50;94.50
26707;DHT22;14319;49.422;10.934;2024-02-28T02:18:14;4.50;94.40
26707;DHT22;14319;49.422;10.934;2024-02-28T02:20:15;4.50;95.40
26707;DHT22;14319;49.422;10.934;2024-02-28T02:22:18;4.60;94.80
26707;DHT22;14319;49.422;10.934;2024-02-28T02:24:18;4.90;93.10
26707;DHT22;14319;49.422;10.934;2024-02-28T02:26:19;4.90;92.30
26707;DHT22;14319;49.422;10.934;2024-02-28T02:28:20;4.70;93.40
26707;DHT22;14319;49.422;10.934;2024-02-28T02:30:20;4.60;93.50
26707;DHT22;14319;49.422;10.934;2024-02-28T02:32:21;4.60;94.00
26707;DHT22;14319;49.422;10.934;2024-02-28T02:34:21;4.70;94.60
26707;DHT22;14319;49.422;10.934;2024-02-28T02:36:22;4.60;94.10
26707;DHT22;14319;49.422;10.934;2024-02-28T02:38:22;4.60;94.40
26707;DHT22;14319;49.422;10.934;2024-02-28T02:40:23;4.60;93.20
26707;DHT22;14319;49.422;10.934;2024-02-28T02:42:24;4.50;94.30
26707;DHT22;14319;49.422;10.934;2024-02-28T02:44:24;4.40;94.30
26707;DHT22;14319;49.422;10.934;2024-02-28T02:46:25;4.50;94.80
26707;DHT22;14319;49.422;10.934;2024-02-28T02:48:25;4.40;95.00
26707;DHT22;14319;49.422;10.934;2024-02-28T02:50:26;4.60;95.30
26707;DHT22;14319;49.422;10.934;2024-02-28T02:52:27;4.50;94.90
26707;DHT22;14319;49.422;10.934;2024-02-28T02:54:27;4.50;94.90
26707;DHT22;14319;49.422;10.934;2024-02-28T02:56:28;4.40;95.30
26707;DHT22;14319;49.422;10.934;2024-02-28T02:58:28;4.50;94.60
26707;DHT22;14319;49.422;10.934;2024-02-28T03:00:29;4.50;95.50
26707;DHT22;14319;49.422;10.934;2024-02-28T03:02:31;4.40;95.10
26707;DHT22;14319;49.422;10.934;2024-02-28T03:04:32;4.40;94.90
26707;DHT22;14319;49.422;10.934;2024-02-28T03:06:33;4.50;95.10
26707;DHT22;14319;49.422;10.934;2024-02-28T03:08:33;4.50;95.10
26707;DHT22;14319;49.422;10.934;2024-02-28T03:10:34;4.60;94.30
26707;DHT22;14319;49.422;10.934;2024-02-28T03:12:34;4.50;94.80
26707;DHT22;14319;49.422;10.934;2024-02-28T03:14:36;4.40;95.00
26707;DHT22;14319;49.422;10.934;2024-02-28T03:16:41;4.60;95.30
26707;DHT22;14319;49.422;10.934;2024-02-28T03:18:42;4.80;94.60
26707;DHT22;14319;49.422;10.934;2024-02-28T03:20:42;4.70;93.60
26707;DHT22;14319;49.422;10.934;2024-02-28T03:22:43;4.60;94.80
26707;DHT22;14319;49.422;10.934;2024-02-28T03:24:43;4.70;94.70
26707;DHT22;14319;49.422;10.934;2024-02-28T03:26:44;4.90;94.00
26707;DHT22;14319;49.422;10.934;2024-02-28T03:28:45;4.80;92.90
26707;DHT22;14319;49.422;10.934;2024-02-28T03:30:45;4.70;93.60
26707;DHT22;14319;49.422;10.934;2024-02-28T03:32:46;4.80;94.30
26707;DHT22;14319;49.422;10.934;2024-02-28T03:34:46;4.80;93.40
26707;DHT22;14319;49.422;10.934;2024-02-28T03:36:47;4.80;93.70
26707;DHT22;14319;49.422;10.934;2024-02-28T03:38:48;4.90;93.30
26707;DHT22;14319;49.422;10.934;2024-02-28T03:40:48;5.00;93.10
26707;DHT22;14319;49.422;10.934;2024-02-28T03:42:49;5.10;91.90
26707;DHT22;14319;49.422;10.934;2024-02-28T03:44:49;5.10;92.80
26707;DHT22;14319;49.422;10.934;2024-02-28T03:46:50;4.90;92.90
26707;DHT22;14319;49.422;10.934;2024-02-28T03:48:50;4.80;92.70
26707;DHT22;14319;49.422;10.934;2024-02-28T03:50:51;4.70;93.40
26707;DHT22;14319;49.422;10.934;2024-02-28T03:52:52;4.70;94.00
26707;DHT22;14319;49.422;10.934;2024-02-28T03:54:52;5.00;93.70
26707;DHT22;14319;49.422;10.934;2024-02-28T03:56:53;4.90;92.80
26707;DHT22;14319;49.422;10.934;2024-02-28T03:58:53;5.20;92.50
26707;DHT22;14319;49.422;10.934;2024-02-28T04:00:54;5.40;91.40
26707;DHT22;14319;49.422;10.934;2024-02-28T04:02:54;5.60;90.90
26707;DHT22;14319;49.422;10.934;2024-02-28T04:04:55;5.70;90.20
26707;DHT22;14319;49.422;10.934;2024-02-28T04:06:56;5.70;89.40
26707;DHT22;14319;49.422;10.934;2024-02-28T04:08:57;5.80;88.80
26707;DHT22;14319;49.422;10.934;2024-02-28T04:10:57;5.90;88.70
26707;DHT22;14319;49.422;10.934;2024-02-28T04:12:58;6.00;88.10
26707;DHT22;14319;49.422;10.934;2024-02-28T04:14:58;5.90;88.10
26707;DHT22;14319;49.422;10.934;2024-02-28T04:16:59;5.90;88.40
26707;DHT22;14319;49.422;10.934;2024-02-28T04:19:00;5.90;88.50
26707;DHT22;14319;49.422;10.934;2024-02-28T04:21:00;5.80;88.70
26707;DHT22;14319;49.422;10.934;2024-02-28T04:23:01;5.90;88.40
26707;DHT22;14319;49.422;10.934;2024-02-28T04:25:01;5.80;88.40
26707;DHT22;14319;49.422;10.934;2024-02-28T04:27:02;5.80;87.60
26707;DHT22;14319;49.422;10.934;2024-02-28T04:29:05;5.40;89.50
26707;DHT22;14319;49.422;10.934;2024-02-28T04:31:08;5.10;91.30
26707;DHT22;14319;49.422;10.934;2024-02-28T04:33:09;5.00;92.00
26707;DHT22;14319;49.422;10.934;2024-02-28T04:35:10;4.90;92.30
26707;DHT22;14319;49.422;10.934;2024-02-28T04:37:11;4.70;93.60
26707;DHT22;14319;49.422;10.934;2024-02-28T04:39:11;4.50;94.80
26707;DHT22;14319;49.422;10.934;2024-02-28T04:41:12;4.40;95.40
26707;DHT22;14319;49.422;10.934;2024-02-28T04:43:12;4.40;95.70
26707;DHT22;14319;49.422;10.934;2024-02-28T04:45:13;4.50;94.90
26707;DHT22;14319;49.422;10.934;2024-02-28T04:47:14;4.60;95.70
26707;DHT22;14319;49.422;10.934;2024-02-28T04:49:14;4.50;94.90
26707;DHT22;14319;49.422;10.934;2024-02-28T04:51:16;4.50;93.90
26707;DHT22;14319;49.422;10.934;2024-02-28T04:53:17;4.50;94.20
26707;DHT22;14319;49.422;10.934;2024-02-28T04:55:18;4.60;94.20
26707;DHT22;14319;49.422;10.934;2024-02-28T04:57:19;4.70;92.90
26707;DHT22;14319;49.422;10.934;2024-02-28T04:59:19;4.80;92.70
26707;DHT22;14319;49.422;10.934;2024-02-28T05:01:20;4.60;93.10
26707;DHT22;14319;49.422;10.934;2024-02-28T05:03:20;4.60;93.90
26707;DHT22;14319;49.422;10.934;2024-02-28T05:05:22;4.60;94.40
26707;DHT22;14319;49.422;10.934;2024-02-28T05:07:23;4.70;93.50
26707;DHT22;14319;49.422;10.934;2024-02-28T05:09:23;4.50;93.90
26707;DHT22;14319;49.422;10.934;2024-02-28T05:11:24;4.70;93.60
26707;DHT22;14319;49.422;10.934;2024-02-28T05:13:25;4.50;94.40
26707;DHT22;14319;49.422;10.934;2024-02-28T05:15:25;4.40;94.80
26707;DHT22;14319;49.422;10.934;2024-02-28T05:17:26;4.30;95.50
26707;DHT22;14319;49.422;10.934;2024-02-28T05:19:27;4.30;95.90
26707;DHT22;14319;49.422;10.934;2024-02-28T05:21:28;4.30;95.40
26707;DHT22;14319;49.422;10.934;2024-02-28T05:23:29;4.40;95.50
26707;DHT22;14319;49.422;10.934;2024-02-28T05:25:31;4.30;95.80
26707;DHT22;14319;49.422;10.934;2024-02-28T05:27:31;4.30;95.90
26707;DHT22;14319;49.422;10.934;2024-02-28T05:29:32;4.30;95.60
26707;DHT22;14319;49.422;10.934;2024-02-28T05:31:32;4.30;95.70
26707;DHT22;14319;49.422;10.934;2024-02-28T05:33:33;4.30;95.70
26707;DHT22;14319;49.422;10.934;2024-02-28T05:35:33;4.30;95.00
26707;DHT22;14319;49.422;10.934;2024-02-28T05:37:34;4.30;95.30
26707;DHT22;14319;49.422;10.934;2024-02-28T05:39:35;4.30;96.10
26707;DHT22;14319;49.422;10.934;2024-02-28T05:41:35;4.30;95.80
26707;DHT22;14319;49.422;10.934;2024-02-28T05:43:40;4.50;94.10
26707;DHT22;14319;49.422;10.934;2024-02-28T05:45:40;4.40;95.20
26707;DHT22;14319;49.422;10.934;2024-02-28T05:47:41;4.60;94.50
26707;DHT22;14319;49.422;10.934;2024-02-28T05:49:42;4.60;94.40
26707;DHT22;14319;49.422;10.934;2024-02-28T05:51:42;4.40;94.30
26707;DHT22;14319;49.422;10.934;2024-02-28T05:53:43;4.60;94.30
26707;DHT22;14319;49.422;10.934;2024-02-28T05:55:45;4.70;93.70
26707;DHT22;14319;49.422;10.934;2024-02-28T05:57:45;4.80;93.10
26707;DHT22;14319;49.422;10.934;2024-02-28T05:59:46;5.10;92.20
26707;DHT22;14319;49.422;10.934;2024-02-28T06:01:46;5.30;91.10
26707;DHT22;14319;49.422;10.934;2024-02-28T06:03:48;5.10;91.40
26707;DHT22;14319;49.422;10.934;2024-02-28T06:05:48;5.20;91.50
26707;DHT22;14319;49.422;10.934;2024-02-28T06:07:49;5.30;91.30
26707;DHT22;14319;49.422;10.934;2024-02-28T06:09:50;5.40;90.70
26707;DHT22;14319;49.422;10.934;2024-02-28T06:11:50;5.40;90.30
26707;DHT22;14319;49.422;10.934;2024-02-28T06:13:51;5.50;89.70
26707;DHT22;14319;49.422;10.934;2024-02-28T06:15:52;5.60;89.30
26707;DHT22;14319;49.422;10.934;2024-02-28T06:17:52;5.50;88.70
26707;DHT22;14319;49.422;10.934;2024-02-28T06:19:53;5.00;91.30
26707;DHT22;14319;49.422;10.934;2024-02-28T06:21:54;5.00;92.50
26707;DHT22;14319;49.422;10.934;2024-02-28T06:23:54;5.20;91.90
26707;DHT22;14319;49.422;10.934;2024-02-28T06:25:56;5.40;91.10
26707;DHT22;14319;49.422;10.934;2024-02-28T06:27:56;5.30;90.40
26707;DHT22;14319;49.422;10.934;2024-02-28T06:29:59;5.50;90.40
26707;DHT22;14319;49.422;10.934;2024-02-28T06:31:59;5.60;89.50
26707;DHT22;14319;49.422;10.934;2024-02-28T06:34:00;5.30;90.50
26707;DHT22;14319;49.422;10.934;2024-02-28T06:36:02;5.40;90.10
26707;DHT22;14319;49.422;10.934;2024-02-28T06:38:03;5.00;90.90
26707;DHT22;14319;49.422;10.934;2024-02-28T06:40:05;5.10;91.70
26707;DHT22;14319;49.422;10.934;2024-02-28T06:42:05;4.90;92.80
26707;DHT22;14319;49.422;10.934;2024-02-28T06:44:07;5.00;92.50
26707;DHT22;14319;49.422;10.934;2024-02-28T06:46:08;5.20;92.00
26707;DHT22;14319;49.422;10.934;2024-02-28T06:48:09;5.20;91.40
26707;DHT22;14319;49.422;10.934;2024-02-28T06:50:10;5.20;91.70
26707;DHT22;14319;49.422;10.934;2024-02-28T06:52:12;5.20;90.80
26707;DHT22;14319;49.422;10.934;2024-02-28T06:54:12;5.10;91.70
26707;DHT22;14319;49.422;10.934;2024-02-28T06:56:13;5.10;92.60
26707;DHT22;14319;49.422;10.934;2024-02-28T06:58:14;4.80;92.20
26707;DHT22;14319;49.422;10.934;2024-02-28T07:00:14;4.80;93.10
26707;DHT22;14319;49.422;10.934;2024-02-28T07:02:16;5.00;92.40
26707;DHT22;14319;49.422;10.934;2024-02-28T07:04:16;4.90;93.00
26707;DHT22;14319;49.422;10.934;2024-02-28T07:06:17;4.70;93.60
26707;DHT22;14319;49.422;10.934;2024-02-28T07:08:18;4.60;93.90
26707;DHT22;14319;49.422;10.934;2024-02-28T07:10:19;4.50;94.30
26707;DHT22;14319;49.422;10.934;2024-02-28T07:12:19;4.70;94.10
26707;DHT22;14319;49.422;10.934;2024-02-28T07:14:20;4.80;93.10
26707;DHT22;14319;49.422;10.934;2024-02-28T07:16:20;4.90;92.30
26707;DHT22;14319;49.422;10.934;2024-02-28T07:18:21;4.70;93.50
26707;DHT22;14319;49.422;10.934;2024-02-28T07:20:22;5.00;93.50
26707;DHT22;14319;49.422;10.934;2024-02-28T07:22:22;5.30;92.40
26707;DHT22;14319;49.422;10.934;2024-02-28T07:24:23;5.40;90.90
26707;DHT22;14319;49.422;10.934;2024-02-28T07:26:23;5.50;91.00
26707;DHT22;14319;49.422;10.934;2024-02-28T07:28:24;5.70;90.40
26707;DHT22;14319;49.422;10.934;2024-02-28T07:30:25;5.80;89.30
26707;DHT22;14319;49.422;10.934;2024-02-28T07:32:25;5.70;89.50
26707;DHT22;14319;49.422;10.934;2024-02-28T07:34:26;5.90;89.30
26707;DHT22;14319;49.422;10.934;2024-02-28T07:36:27;5.70;89.20
26707;DHT22;14319;49.422;10.934;2024-02-28T07:38:27;5.70;89.10
26707;DHT22;14319;49.422;10.934;2024-02-28T07:40:28;5.50;89.90
26707;DHT22;14319;49.422;10.934;2024-02-28T07:42:29;5.60;89.40
26707;DHT22;14319;49.422;10.934;2024-02-28T07:44:29;5.40;89.80
26707;DHT22;14319;49.422;10.934;2024-02-28T07:46:33;5.30;90.70
26707;DHT22;14319;49.422;10.934;2024-02-28T07:48:34;5.50;91.00
26707;DHT22;14319;49.422;10.934;2024-02-28T07:50:34;5.80;90.10
26707;DHT22;14319;49.422;10.934;2024-02-28T07:52:35;5.90;88.90
26707;DHT22;14319;49.422;10.934;2024-02-28T07:54:37;5.80;88.20
26707;DHT22;14319;49.422;10.934;2024-02-28T07:56:38;5.60;90.20
26707;DHT22;14319;49.422;10.934;2024-02-28T07:58:38;5.50;90.90
26707;DHT22;14319;49.422;10.934;2024-02-28T08:00:39;5.20;90.80
26707;DHT22;14319;49.422;10.934;2024-02-28T08:02:41;5.00;92.30
26707;DHT22;14319;49.422;10.934;2024-02-28T08:04:41;5.00;92.10
26707;DHT22;14319;49.422;10.934;2024-02-28T08:06:43;5.10;93.20
26707;DHT22;14319;49.422;10.934;2024-02-28T08:08:44;5.10;93.40
26707;DHT22;14319;49.422;10.934;2024-02-28T08:10:46;4.90;92.90
26707;DHT22;14319;49.422;10.934;2024-02-28T08:12:49;4.90;93.00
26707;DHT22;14319;49.422;10.934;2024-02-28T08:14:49;5.20;93.20
26707;DHT22;14319;49.422;10.934;2024-02-28T08:16:50;5.60;91.40
26707;DHT22;14319;49.422;10.934;2024-02-28T08:18:51;5.80;89.50
26707;DHT22;14319;49.422;10.934;2024-02-28T08:20:51;5.70;89.00
26707;DHT22;14319;49.422;10.934;2024-02-28T08:22:53;5.30;91.40
26707;DHT22;14319;49.422;10.934;2024-02-28T08:24:56;5.00;92.50
26707;DHT22;14319;49.422;10.934;2024-02-28T08:26:57;5.10;94.10
26707;DHT22;14319;49.422;10.934;2024-02-28T08:28:57;5.10;93.00
26707;DHT22;14319;49.422;10.934;2024-02-28T08:30:58;5.40;92.30
26707;DHT22;14319;49.422;10.934;2024-02-28T08:32:59;5.60;90.80
26707;DHT22;14319;49.422;10.934;2024-02-28T08:35:00;5.60;90.60
26707;DHT22;14319;49.422;10.934;2024-02-28T08:37:01;5.70;90.50
26707;DHT22;14319;49.422;10.934;2024-02-28T08:39:01;5.60;90.20
26707;DHT22;14319;49.422;10.934;2024-02-28T08:41:05;5.60;90.00
26707;DHT22;14319;49.422;10.934;2024-02-28T08:43:05;5.60;90.00
26707;DHT22;14319;49.422;10.934;2024-02-28T08:45:06;5.40;90.50
26707;DHT22;14319;49.422;10.934;2024-02-28T08:47:07;5.50;90.70
26707;DHT22;14319;49.422;10.934;2024-02-28T08:49:13;5.80;89.20
26707;DHT22;14319;49.422;10.934;2024-02-28T08:51:14;6.00;88.00
26707;DHT22;14319;49.422;10.934;2024-02-28T08:53:14;6.00;89.00
26707;DHT22;14319;49.422;10.934;2024-02-28T08:55:15;5.90;88.40
26707;DHT22;14319;49.422;10.934;2024-02-28T08:57:19;5.20;90.40
26707;DHT22;14319;49.422;10.934;2024-02-28T08:59:22;5.00;91.40
26707;DHT22;14319;49.422;10.934;2024-02-28T09:01:23;5.20;92.00
26707;DHT22;14319;49.422;10.934;2024-02-28T09:03:24;5.20;89.70
26707;DHT22;14319;49.422;10.934;2024-02-28T09:05:24;4.90;91.90
26707;DHT22;14319;49.422;10.934;2024-02-28T09:07:25;4.80;92.40
26707;DHT22;14319;49.422;10.934;2024-02-28T09:09:26;4.90;92.80
26707;DHT22;14319;49.422;10.934;2024-02-28T09:11:28;4.90;92.80
26707;DHT22;14319;49.422;10.934;2024-02-28T09:13:29;4.90;92.50
26707;DHT22;14319;49.422;10.934;2024-02-28T09:15:30;4.70;92.80
26707;DHT22;14319;49.422;10.934;2024-02-28T09:17:31;4.70;92.90
26707;DHT22;14319;49.422;10.934;2024-02-28T09:19:32;4.70;92.60
26707;DHT22;14319;49.422;10.934;2024-02-28T09:21:32;4.70;92.50
26707;DHT22;14319;49.422;10.934;2024-02-28T09:23:33;4.70;92.50
26707;DHT22;14319;49.422;10.934;2024-02-28T09:25:34;4.70;93.00
26707;DHT22;14319;49.422;10.934;2024-02-28T09:27:36;4.60;92.50
26707;DHT22;14319;49.422;10.934;2024-02-28T09:29:37;4.60;93.00
26707;DHT22;14319;49.422;10.934;2024-02-28T09:31:38;4.70;93.00
26707;DHT22;14319;49.422;10.934;2024-02-28T09:33:39;4.80;92.80
26707;DHT22;14319;49.422;10.934;2024-02-28T09:35:39;4.80;92.10
26707;DHT22;14319;49.422;10.934;2024-02-28T09:37:40;4.90;91.90
26707;DHT22;14319;49.422;10.934;2024-02-28T09:39:41;4.90;92.90
26707;DHT22;14319;49.422;10.934;2024-02-28T09:41:41;4.90;92.50
26707;DHT22;14319;49.422;10.934;2024-02-28T09:43:42;4.90;92.50
26707;DHT22;14319;49.422;10.934;2024-02-28T09:45:43;5.00;91.80
26707;DHT22;14319;49.422;10.934;2024-02-28T09:47:43;5.10;92.20
26707;DHT22;14319;49.422;10.934;2024-02-28T09:49:45;5.20;91.60
26707;DHT22;14319;49.422;10.934;2024-02-28T09:51:49;5.20;90.50
26707;DHT22;14319;49.422;10.934;2024-02-28T09:53:51;5.20;90.90
26707;DHT22;14319;49.422;10.934;2024-02-28T09:55:52;5.10;90.90
26707;DHT22;14319;49.422;10.934;2024-02-28T09:57:53;5.00;91.80
26707;DHT22;14319;49.422;10.934;2024-02-28T09:59:58;5.00;91.40
26707;DHT22;14319;49.422;10.934;2024-02-28T10:02:00;5.10;93.10
26707;DHT22;14319;49.422;10.934;2024-02-28T10:04:01;5.50;91.60
26707;DHT22;14319;49.422;10.934;2024-02-28T10:06:03;5.80;89.20
26707;DHT22;14319;49.422;10.934;2024-02-28T10:08:05;5.80;89.30
26707;DHT22;14319;49.422;10.934;2024-02-28T10:10:06;6.00;89.00
26707;DHT22;14319;49.422;10.934;2024-02-28T10:12:08;5.80;87.60
26707;DHT22;14319;49.422;10.934;2024-02-28T10:14:09;5.60;89.10
26707;DHT22;14319;49.422;10.934;2024-02-28T10:16:09;5.70;90.50
26707;DHT22;14319;49.422;10.934;2024-02-28T10:18:10;6.00;89.20
26707;DHT22;14319;49.422;10.934;2024-02-28T10:20:11;6.30;88.90
26707;DHT22;14319;49.422;10.934;2024-02-28T10:22:12;6.20;86.60
26707;DHT22;14319;49.422;10.934;2024-02-28T10:24:12;6.30;87.60
26707;DHT22;14319;49.422;10.934;2024-02-28T10:26:14;6.50;87.30
26707;DHT22;14319;49.422;10.934;2024-02-28T10:28:14;6.20;86.30
26707;DHT22;14319;49.422;10.934;2024-02-28T10:30:16;6.30;89.00
26707;DHT22;14319;49.422;10.934;2024-02-28T10:32:17;6.10;87.50
26707;DHT22;14319;49.422;10.934;2024-02-28T10:34:18;6.10;89.60
26707;DHT22;14319;49.422;10.934;2024-02-28T10:36:21;6.30;87.20
26707;DHT22;14319;49.422;10.934;2024-02-28T10:38:23;6.20;87.70
26707;DHT22;14319;49.422;10.934;2024-02-28T10:40:24;6.00;88.00
26707;DHT22;14319;49.422;10.934;2024-02-28T10:42:30;5.80;88.10
26707;DHT22;14319;49.422;10.934;2024-02-28T10:44:31;6.00;88.20
26707;DHT22;14319;49.422;10.934;2024-02-28T10:46:33;6.30;87.80
26707;DHT22;14319;49.422;10.934;2024-02-28T10:48:34;6.10;88.10
26707;DHT22;14319;49.422;10.934;2024-02-28T10:50:35;6.20;87.50
26707;DHT22;14319;49.422;10.934;2024-02-28T10:52:43;5.90;88.20
26707;DHT22;14319;49.422;10.934;2024-02-28T10:54:45;5.80;90.00
26707;DHT22;14319;49.422;10.934;2024-02-28T10:56:51;5.80;90.30
26707;DHT22;14319;49.422;10.934;2024-02-28T10:58:54;6.00;88.40
26707;DHT22;14319;49.422;10.934;2024-02-28T11:00:57;5.80;88.70
26707;DHT22;14319;49.422;10.934;2024-02-28T11:02:58;5.70;89.60
26707;DHT22;14319;49.422;10.934;2024-02-28T11:04:59;5.70;90.00
26707;DHT22;14319;49.422;10.934;2024-02-28T11:07:02;5.50;89.30
26707;DHT22;14319;49.422;10.934;2024-02-28T11:09:03;5.40;90.40
26707;DHT22;14319;49.422;10.934;2024-02-28T11:11:04;5.40;90.10
26707;DHT22;14319;49.422;10.934;2024-02-28T11:13:04;5.60;91.10
26707;DHT22;14319;49.422;10.934;2024-02-28T11:15:16;5.60;89.90
26707;DHT22;14319;49.422;10.934;2024-02-28T11:17:26;5.50;89.80
26707;DHT22;14319;49.422;10.934;2024-02-28T11:19:29;5.60;91.50
26707;DHT22;14319;49.422;10.934;2024-02-28T11:21:34;5.60;91.00
26707;DHT22;14319;49.422;10.934;2024-02-28T11:23:36;5.90;89.60
26707;DHT22;14319;49.422;10.934;2024-02-28T11:25:37;6.20;89.00
26707;DHT22;14319;49.422;10.934;2024-02-28T11:27:48;6.40;88.70
26707;DHT22;14319;49.422;10.934;2024-02-28T11:29:49;6.10;89.30
26707;DHT22;14319;49.422;10.934;2024-02-28T11:31:50;6.10;88.80
26707;DHT22;14319;49.422;10.934;2024-02-28T11:33:51;6.00;89.30
26707;DHT22;14319;49.422;10.934;2024-02-28T11:35:57;6.20;88.80
26707;DHT22;14319;49.422;10.934;2024-02-28T11:37:58;6.30;88.00
26707;DHT22;14319;49.422;10.934;2024-02-28T11:39:59;6.10;88.20
26707;DHT22;14319;49.422;10.934;2024-02-28T11:42:12;6.10;89.00
26707;DHT22;14319;49.422;10.934;2024-02-28T11:44:17;6.10;87.60
26707;DHT22;14319;49.422;10.934;2024-02-28T11:46:18;6.00;88.00
26707;DHT22;14319;49.422;10.934;2024-02-28T11:48:18;6.10;89.50
26707;DHT22;14319;49.422;10.934;2024-02-28T11:50:19;6.50;87.50
26707;DHT22;14319;49.422;10.934;2024-02-28T11:52:20;6.60;86.00
26707;DHT22;14319;49.422;10.934;2024-02-28T11:54:20;6.50;87.00
26707;DHT22;14319;49.422;10.934;2024-02-28T11:56:21;6.30;87.20
26707;DHT22;14319;49.422;10.934;2024-02-28T11:58:22;6.40;87.80
26707;DHT22;14319;49.422;10.934;2024-02-28T12:00:23;6.70;87.00
26707;DHT22;14319;49.422;10.934;2024-02-28T12:02:23;6.80;86.40
26707;DHT22;14319;49.422;10.934;2024-02-28T12:04:30;6.70;86.30
26707;DHT22;14319;49.422;10.934;2024-02-28T12:06:34;6.80;87.40
26707;DHT22;14319;49.422;10.934;2024-02-28T12:08:36;7.00;85.40
26707;DHT22;14319;49.422;10.934;2024-02-28T12:10:37;7.10;85.80
26707;DHT22;14319;49.422;10.934;2024-02-28T12:12:40;7.00;85.30
26707;DHT22;14319;49.422;10.934;2024-02-28T12:14:41;6.80;85.90
26707;DHT22;14319;49.422;10.934;2024-02-28T12:16:43;6.40;85.40
26707;DHT22;14319;49.422;10.934;2024-02-28T12:18:47;6.30;87.30
26707;DHT22;14319;49.422;10.934;2024-02-28T12:20:48;6.30;87.00
26707;DHT22;14319;49.422;10.934;2024-02-28T12:22:50;6.30;86.40
26707;DHT22;14319;49.422;10.934;2024-02-28T12:24:51;6.30;86.10
26707;DHT22;14319;49.422;10.934;2024-02-28T12:26:51;6.30;86.10
26707;DHT22;14319;49.422;10.934;2024-02-28T12:28:52;6.50;86.70
26707;DHT22;14319;49.422;10.934;2024-02-28T12:30:52;6.50;87.20
26707;DHT22;14319;49.422;10.934;2024-02-28T12:32:54;6.70;85.60
26707;DHT22;14319;49.422;10.934;2024-02-28T12:34:54;6.90;86.00
26707;DHT22;14319;49.422;10.934;2024-02-28T12:36:55;6.90;85.90
26707;DHT22;14319;49.422;10.934;2024-02-28T12:38:56;6.90;84.80
26707;DHT22;14319;49.422;10.934;2024-02-28T12:40:57;7.10;84.20
26707;DHT22;14319;49.422;10.934;2024-02-28T12:42:57;7.30;83.80
26707;DHT22;14319;49.422;10.934;2024-02-28T12:44:58;7.20;84.10